Time;durP1;ratioP1;P1;durP2;ratioP2;P2;SDS_P1;SDS_P2;PMS_P1;PMS_P2;Temp;Humidity;BMP_temperature;BMP_pressure;BME280_temperature;BME280_humidity;BME280_pressure;Samples;Min_cycle;Max_cycle;Signal;HPM_P1;HPM_P2
2022/12/11 00:00:07;;;;;;;20.48;12.45;;;;;;;;;;4874117;29;20026;-94
2022/12/11 00:02:41;;;;;;;20.35;11.82;;;;;;;;;;4889398;29;20096;-94
2022/12/11 00:05:08;;;;;;;19.73;11.60;;;;;;;;;;4871871;29;20100;-94
2022/12/11 00:07:43;;;;;;;18.17;11.48;;;;;;;;;;4873462;29;20410;-93
2022/12/11 00:10:10;;;;;;;20.58;11.52;;;;;;;;;;4868939;29;20035;-94
2022/12/11 00:12:37;;;;;;;19.42;10.75;;;;;;;;;;4873517;29;20176;-93
2022/12/11 00:15:06;;;;;;;20.70;11.52;;;;;;;;;;4889971;29;20113;-94
2022/12/11 00:17:36;;;;;;;19.58;11.55;;;;;;;;;;4876146;29;20029;-94
2022/12/11 00:20:02;;;;;;;20.80;11.60;;;;;;;;;;4874634;29;20465;-93
2022/12/11 00:22:29;;;;;;;17.88;10.80;;;;;;;;;;4887795;29;20037;-95
2022/12/11 00:24:55;;;;;;;19.50;11.40;;;;;;;;;;4927458;23;20045;-94
2022/12/11 00:27:23;;;;;;;18.80;11.13;;;;;;;;;;4870439;29;20474;-95
2022/12/11 00:29:50;;;;;;;20.40;11.98;;;;;;;;;;4855939;29;20519;-95
2022/12/11 00:32:19;;;;;;;18.85;11.20;;;;;;;;;;4855499;29;20132;-94
2022/12/11 00:34:45;;;;;;;17.85;11.45;;;;;;;;;;4851343;29;20034;-94
2022/12/11 00:37:19;;;;;;;17.48;10.80;;;;;;;;;;4839130;29;20060;-96
2022/12/11 00:39:45;;;;;;;19.83;11.27;;;;;;;;;;4856132;29;20093;-95
2022/12/11 00:42:16;;;;;;;17.52;10.63;;;;;;;;;;4842692;29;20034;-93
2022/12/11 00:44:45;;;;;;;19.50;11.70;;;;;;;;;;4860800;29;20032;-94
2022/12/11 00:47:12;;;;;;;20.52;11.15;;;;;;;;;;4860909;29;20042;-93
2022/12/11 00:49:38;;;;;;;18.13;10.82;;;;;;;;;;4876888;29;20037;-93
2022/12/11 00:52:04;;;;;;;19.90;10.63;;;;;;;;;;4860645;29;20029;-93
2022/12/11 00:54:31;;;;;;;19.15;11.07;;;;;;;;;;4884320;29;20089;-93
2022/12/11 00:57:04;;;;;;;17.92;10.10;;;;;;;;;;4866062;29;20057;-94
2022/12/11 00:59:30;;;;;;;19.15;10.88;;;;;;;;;;4842104;29;20038;-94
2022/12/11 01:01:59;;;;;;;17.25;10.15;;;;;;;;;;4856129;29;20033;-95
2022/12/11 01:04:28;;;;;;;17.98;11.25;;;;;;;;;;4855236;29;20033;-94
2022/12/11 01:06:54;;;;;;;18.60;10.50;;;;;;;;;;4857360;29;20037;-93
2022/12/11 01:12:06;;;;;;;16.42;10.50;;;;;;;;;;4860229;29;20052;-94
2022/12/11 01:14:32;;;;;;;17.95;10.32;;;;;;;;;;4855931;29;20032;-93
2022/12/11 01:16:58;;;;;;;18.55;10.98;;;;;;;;;;4858306;29;20037;-94
2022/12/11 01:19:25;;;;;;;18.58;10.23;;;;;;;;;;4854791;29;20029;-93
2022/12/11 01:21:52;;;;;;;15.38;9.63;;;;;;;;;;4856560;29;20029;-94
2022/12/11 01:24:19;;;;;;;18.63;10.27;;;;;;;;;;4875200;29;20033;-94
2022/12/11 01:26:45;;;;;;;15.80;9.75;;;;;;;;;;4844252;29;20069;-92
2022/12/11 01:29:11;;;;;;;17.17;9.95;;;;;;;;;;4857742;29;20138;-94
2022/12/11 01:31:42;;;;;;;18.52;10.13;;;;;;;;;;4872276;29;20041;-95
2022/12/11 01:34:12;;;;;;;16.95;9.90;;;;;;;;;;4858437;29;20049;-93
2022/12/11 01:36:39;;;;;;;18.80;9.43;;;;;;;;;;4841895;29;20034;-95
2022/12/11 01:39:05;;;;;;;17.50;9.88;;;;;;;;;;4855865;29;20122;-94
2022/12/11 01:41:31;;;;;;;17.52;9.77;;;;;;;;;;4853436;29;20034;-93
2022/12/11 01:44:05;;;;;;;18.75;10.45;;;;;;;;;;4854162;29;20021;-93
2022/12/11 01:46:36;;;;;;;17.73;10.05;;;;;;;;;;4854757;29;20034;-93
2022/12/11 01:49:16;;;;;;;21.10;10.13;;;;;;;;;;4856443;29;20098;-94
2022/12/11 01:51:52;;;;;;;18.27;9.95;;;;;;;;;;4839628;29;20090;-94
2022/12/11 01:54:21;;;;;;;16.90;9.82;;;;;;;;;;4870590;29;20045;-94
2022/12/11 01:56:50;;;;;;;18.30;9.77;;;;;;;;;;4861356;29;20025;-95
2022/12/11 01:59:18;;;;;;;16.83;9.65;;;;;;;;;;4862149;29;20025;-94
2022/12/11 02:01:49;;;;;;;19.92;10.80;;;;;;;;;;4848254;29;20067;-95
2022/12/11 02:04:17;;;;;;;16.88;9.40;;;;;;;;;;4857833;29;20029;-94
2022/12/11 02:06:45;;;;;;;16.40;9.73;;;;;;;;;;4861734;29;20109;-94
2022/12/11 02:09:25;;;;;;;17.10;9.18;;;;;;;;;;4867233;29;20064;-95
2022/12/11 02:12:01;;;;;;;16.48;9.45;;;;;;;;;;4866796;29;20041;-94
2022/12/11 02:14:35;;;;;;;15.00;8.85;;;;;;;;;;4862703;29;20116;-94
2022/12/11 02:17:25;;;;;;;18.00;9.05;;;;;;;;;;4862973;29;20059;-94
2022/12/11 02:20:25;;;;;;;17.58;9.15;;;;;;;;;;4860412;29;20120;-94
2022/12/11 02:23:11;;;;;;;16.20;8.90;;;;;;;;;;4854680;29;20022;-96
2022/12/11 02:32:44;;;;;;;16.27;8.10;;;;;;;;;;4881850;29;20132;-94
2022/12/11 02:35:14;;;;;;;16.92;8.80;;;;;;;;;;4826118;29;20037;-93
2022/12/11 02:37:43;;;;;;;17.65;9.10;;;;;;;;;;4833492;29;20090;-95
2022/12/11 02:40:13;;;;;;;14.60;8.57;;;;;;;;;;4826659;29;20027;-95
2022/12/11 02:42:42;;;;;;;16.20;9.20;;;;;;;;;;4822554;29;20055;-94
2022/12/11 02:45:12;;;;;;;14.88;8.98;;;;;;;;;;4823248;29;20049;-94
2022/12/11 02:47:39;;;;;;;15.13;9.35;;;;;;;;;;4820544;29;20035;-94
2022/12/11 02:50:08;;;;;;;15.40;8.45;;;;;;;;;;4821572;29;20026;-95
2022/12/11 02:52:36;;;;;;;15.35;8.52;;;;;;;;;;4824974;29;20049;-93
2022/12/11 02:55:06;;;;;;;18.58;10.20;;;;;;;;;;4826039;29;20041;-95
2022/12/11 02:57:39;;;;;;;20.58;10.93;;;;;;;;;;4821519;29;20046;-93
2022/12/11 03:00:10;;;;;;;17.55;10.27;;;;;;;;;;4830302;29;20067;-94
2022/12/11 03:02:38;;;;;;;17.83;10.43;;;;;;;;;;4826359;29;20043;-95
2022/12/11 03:05:07;;;;;;;17.63;9.93;;;;;;;;;;4821312;29;20046;-94
2022/12/11 03:07:35;;;;;;;15.88;9.55;;;;;;;;;;4819744;29;20109;-96
2022/12/11 03:10:02;;;;;;;19.08;10.55;;;;;;;;;;4818976;29;20043;-95
2022/12/11 03:12:40;;;;;;;17.27;10.02;;;;;;;;;;4815608;29;20046;-95
2022/12/11 03:15:10;;;;;;;19.35;10.48;;;;;;;;;;4819143;29;20118;-95
2022/12/11 03:17:38;;;;;;;19.70;10.02;;;;;;;;;;4814830;29;20066;-95
2022/12/11 03:20:29;;;;;;;18.85;10.73;;;;;;;;;;4821048;29;20023;-94
2022/12/11 03:23:14;;;;;;;18.50;10.68;;;;;;;;;;4819222;29;20187;-93
2022/12/11 03:25:49;;;;;;;18.00;9.82;;;;;;;;;;4816642;29;20047;-96
2022/12/11 03:28:18;;;;;;;16.58;9.52;;;;;;;;;;4815406;29;20485;-93
2022/12/11 03:30:49;;;;;;;19.48;10.40;;;;;;;;;;4815874;29;20041;-95
2022/12/11 03:33:18;;;;;;;17.92;10.00;;;;;;;;;;4818203;29;20094;-94
2022/12/11 03:35:48;;;;;;;17.80;10.00;;;;;;;;;;4818124;29;20038;-93
2022/12/11 03:38:23;;;;;;;18.35;11.02;;;;;;;;;;4810802;29;20031;-94
2022/12/11 03:40:51;;;;;;;19.58;10.60;;;;;;;;;;4812041;29;20035;-93
2022/12/11 03:43:23;;;;;;;19.55;11.18;;;;;;;;;;4811009;29;20036;-93
2022/12/11 03:45:52;;;;;;;20.38;11.30;;;;;;;;;;4813485;29;20062;-94
2022/12/11 03:48:24;;;;;;;22.58;11.65;;;;;;;;;;4814456;29;20059;-93
2022/12/11 03:50:57;;;;;;;22.88;12.05;;;;;;;;;;4801096;29;20035;-94
2022/12/11 03:53:26;;;;;;;22.08;10.95;;;;;;;;;;4812771;29;20103;-94
2022/12/11 03:55:58;;;;;;;21.05;11.23;;;;;;;;;;4813101;29;20039;-94
2022/12/11 03:58:29;;;;;;;23.10;11.27;;;;;;;;;;4810319;29;20040;-94
2022/12/11 04:00:56;;;;;;;20.15;11.30;;;;;;;;;;4813379;29;20117;-93
2022/12/11 04:03:25;;;;;;;22.15;10.98;;;;;;;;;;4814639;29;20035;-93
2022/12/11 04:05:52;;;;;;;19.42;10.55;;;;;;;;;;4815780;29;20031;-92
2022/12/11 04:08:19;;;;;;;20.05;11.57;;;;;;;;;;4815140;29;20102;-93
2022/12/11 04:11:33;;;;;;;21.45;11.95;;;;;;;;;;4813720;29;20485;-93
2022/12/11 04:13:36;;;;;;;21.33;11.63;;;;;;;;;;4811017;29;20070;-93
2022/12/11 04:16:06;;;;;;;19.88;11.57;;;;;;;;;;4799422;30;20039;-95
2022/12/11 04:24:14;;;;;;;20.65;11.50;;;;;;;;;;4808015;29;20049;-95
2022/12/11 04:26:47;;;;;;;22.02;11.60;;;;;;;;;;4816983;29;20035;-95
2022/12/11 04:29:14;;;;;;;22.45;11.70;;;;;;;;;;4813392;29;20096;-93
2022/12/11 04:31:40;;;;;;;22.08;11.85;;;;;;;;;;4813616;29;20039;-95
2022/12/11 04:34:06;;;;;;;20.98;11.43;;;;;;;;;;4808785;29;20581;-94
2022/12/11 04:36:34;;;;;;;20.52;12.13;;;;;;;;;;4810267;29;20039;-95
2022/12/11 04:39:03;;;;;;;22.92;11.52;;;;;;;;;;4812698;29;20031;-93
2022/12/11 04:41:31;;;;;;;21.73;11.35;;;;;;;;;;4811292;29;20043;-94
2022/12/11 04:43:58;;;;;;;20.15;11.00;;;;;;;;;;4800162;29;20111;-92
2022/12/11 04:46:27;;;;;;;21.45;11.45;;;;;;;;;;4811555;29;20038;-93
2022/12/11 04:48:53;;;;;;;22.38;11.90;;;;;;;;;;4815409;29;20043;-93
2022/12/11 04:51:20;;;;;;;23.85;12.32;;;;;;;;;;4799911;29;20059;-93
2022/12/11 04:53:46;;;;;;;23.60;12.25;;;;;;;;;;4810537;29;20110;-93
2022/12/11 04:56:14;;;;;;;22.35;11.80;;;;;;;;;;4815465;29;20104;-93
2022/12/11 04:58:46;;;;;;;23.60;12.50;;;;;;;;;;4818054;29;20096;-93
2022/12/11 05:01:13;;;;;;;20.70;11.48;;;;;;;;;;4813037;29;20138;-92
2022/12/11 05:03:42;;;;;;;22.10;11.18;;;;;;;;;;4811533;29;20094;-94
2022/12/11 05:06:09;;;;;;;23.85;12.15;;;;;;;;;;4810950;29;20405;-93
2022/12/11 05:11:39;;;;;;;23.43;11.57;;;;;;;;;;4852559;23;20144;-93
2022/12/11 05:17:10;;;;;;;22.10;11.95;;;;;;;;;;4889118;23;20052;-92
2022/12/11 05:19:36;;;;;;;25.65;12.60;;;;;;;;;;4851616;29;20057;-95
2022/12/11 05:22:07;;;;;;;25.13;12.55;;;;;;;;;;4852276;29;20029;-94
2022/12/11 05:24:33;;;;;;;24.95;13.32;;;;;;;;;;4852855;29;20052;-93
2022/12/11 05:27:02;;;;;;;23.30;12.68;;;;;;;;;;4869423;29;20041;-95
2022/12/11 05:29:28;;;;;;;21.38;12.13;;;;;;;;;;4856327;29;20062;-94
2022/12/11 05:31:56;;;;;;;24.45;12.88;;;;;;;;;;4859647;29;20046;-94
2022/12/11 05:34:25;;;;;;;23.23;12.82;;;;;;;;;;4855946;29;20075;-92
2022/12/11 05:36:53;;;;;;;24.23;11.80;;;;;;;;;;4874905;29;20030;-93
2022/12/11 05:39:19;;;;;;;22.45;12.20;;;;;;;;;;4859129;29;20061;-94
2022/12/11 05:41:55;;;;;;;;;;;;;;;;;;;;;
2022/12/11 05:44:23;;;;;;;22.58;11.80;;;;;;;;;;4869882;29;20539;-93
2022/12/11 05:46:52;;;;;;;23.23;12.13;;;;;;;;;;4854161;29;20038;-93
2022/12/11 05:49:20;;;;;;;20.83;11.82;;;;;;;;;;4856252;29;20033;-94
2022/12/11 05:51:47;;;;;;;20.88;10.48;;;;;;;;;;4867896;29;20475;-94
2022/12/11 05:54:15;;;;;;;21.63;11.40;;;;;;;;;;4855437;29;20088;-93
2022/12/11 05:56:41;;;;;;;19.90;10.40;;;;;;;;;;4863676;29;20030;-92
2022/12/11 05:59:08;;;;;;;18.95;10.38;;;;;;;;;;4866350;29;20133;-93
2022/12/11 06:01:37;;;;;;;19.63;10.73;;;;;;;;;;4881808;29;20025;-91
2022/12/11 06:04:04;;;;;;;20.50;10.13;;;;;;;;;;4864594;29;20101;-92
2022/12/11 06:06:30;;;;;;;19.38;9.57;;;;;;;;;;4864920;29;20049;-92
2022/12/11 06:09:02;;;;;;;20.05;10.20;;;;;;;;;;4865572;29;20026;-95
2022/12/11 06:11:35;;;;;;;20.40;9.98;;;;;;;;;;4880940;29;20073;-92
2022/12/11 06:14:02;;;;;;;22.27;10.68;;;;;;;;;;4849715;29;20046;-93
2022/12/11 06:16:31;;;;;;;16.85;9.85;;;;;;;;;;4880595;29;20026;-91
2022/12/11 06:18:57;;;;;;;22.27;11.25;;;;;;;;;;4866104;29;20134;-92
2022/12/11 06:21:26;;;;;;;23.27;12.75;;;;;;;;;;4863612;29;20042;-93
2022/12/11 06:23:54;;;;;;;23.10;11.15;;;;;;;;;;4861560;29;20026;-95
2022/12/11 06:26:42;;;;;;;21.58;11.30;;;;;;;;;;4839807;29;20046;-94
2022/12/11 06:29:43;;;;;;;22.58;11.98;;;;;;;;;;4859154;29;20026;-94
2022/12/11 06:32:11;;;;;;;25.10;12.35;;;;;;;;;;4890413;29;20037;-95
2022/12/11 06:34:37;;;;;;;25.27;13.27;;;;;;;;;;4878260;29;20009;-92
2022/12/11 06:37:06;;;;;;;24.50;11.85;;;;;;;;;;4877688;29;20040;-93
2022/12/11 06:39:43;;;;;;;23.80;12.50;;;;;;;;;;4864934;29;20158;-96
2022/12/11 06:42:10;;;;;;;21.88;12.43;;;;;;;;;;4878696;29;20037;-95
2022/12/11 06:44:36;;;;;;;26.35;13.13;;;;;;;;;;4879476;29;20037;-94
2022/12/11 06:47:06;;;;;;;22.48;11.90;;;;;;;;;;4896147;29;20038;-93
2022/12/11 06:49:32;;;;;;;23.30;12.00;;;;;;;;;;4878120;29;20506;-95
2022/12/11 06:52:06;;;;;;;25.58;13.15;;;;;;;;;;4859688;29;20045;-94
2022/12/11 06:54:37;;;;;;;22.45;11.98;;;;;;;;;;4877875;29;20118;-94
2022/12/11 06:57:03;;;;;;;21.08;10.90;;;;;;;;;;4865279;29;20064;-94
2022/12/11 06:59:29;;;;;;;21.25;11.82;;;;;;;;;;4891693;29;20057;-92
2022/12/11 07:01:57;;;;;;;20.65;10.95;;;;;;;;;;4892359;29;20053;-92
2022/12/11 07:04:26;;;;;;;22.77;11.80;;;;;;;;;;4894813;29;20479;-94
2022/12/11 07:07:03;;;;;;;25.10;12.27;;;;;;;;;;4901027;29;20022;-94
2022/12/11 07:09:43;;;;;;;22.77;11.85;;;;;;;;;;4885769;29;20034;-94
2022/12/11 07:12:12;;;;;;;21.85;11.40;;;;;;;;;;4875345;29;20050;-95
2022/12/11 07:14:41;;;;;;;17.83;9.55;;;;;;;;;;4888519;29;20034;-96
2022/12/11 07:17:10;;;;;;;19.45;10.68;;;;;;;;;;4886363;29;20078;-95
2022/12/11 07:19:43;;;;;;;18.75;9.68;;;;;;;;;;4857545;29;20026;-95
2022/12/11 07:22:10;;;;;;;18.05;9.65;;;;;;;;;;4859021;29;20050;-93
2022/12/11 07:24:42;;;;;;;21.98;10.70;;;;;;;;;;4858730;29;20030;-94
2022/12/11 07:27:08;;;;;;;20.08;10.73;;;;;;;;;;4857869;29;20078;-95
2022/12/11 07:29:36;;;;;;;19.80;11.02;;;;;;;;;;4886190;29;20502;-94
2022/12/11 07:32:06;;;;;;;22.10;10.82;;;;;;;;;;4867841;29;20046;-93
2022/12/11 07:34:37;;;;;;;21.42;10.88;;;;;;;;;;4886640;29;20042;-96
2022/12/11 07:37:10;;;;;;;22.05;12.07;;;;;;;;;;4855744;29;20052;-96
2022/12/11 07:39:36;;;;;;;22.70;11.27;;;;;;;;;;4854928;29;20106;-95
2022/12/11 07:42:14;;;;;;;22.30;11.68;;;;;;;;;;4852398;29;20033;-95
2022/12/11 07:44:41;;;;;;;19.00;10.60;;;;;;;;;;4883408;29;20036;-95
2022/12/11 07:47:08;;;;;;;18.88;10.23;;;;;;;;;;4882629;29;20117;-93
2022/12/11 07:49:34;;;;;;;20.00;10.88;;;;;;;;;;4885886;29;20046;-92
2022/12/11 07:55:05;;;;;;;21.50;11.43;;;;;;;;;;4876002;23;20102;-95
2022/12/11 08:00:38;;;;;;;20.60;11.63;;;;;;;;;;5004939;23;20101;-93
2022/12/11 08:03:04;;;;;;;44.45;20.67;;;;;;;;;;4848508;29;20482;-94
2022/12/11 08:05:33;;;;;;;26.23;13.60;;;;;;;;;;4864148;29;20041;-92
2022/12/11 08:07:59;;;;;;;19.15;11.32;;;;;;;;;;4846827;29;20037;-93
2022/12/11 08:10:44;;;;;;;18.98;12.00;;;;;;;;;;4848129;29;20452;-94
2022/12/11 08:13:10;;;;;;;15.63;9.27;;;;;;;;;;4849131;29;20045;-95
2022/12/11 08:15:37;;;;;;;19.17;10.73;;;;;;;;;;4858859;29;20133;-91
2022/12/11 08:18:06;;;;;;;15.65;7.97;;;;;;;;;;4866735;29;20032;-94
2022/12/11 08:20:36;;;;;;;14.30;7.90;;;;;;;;;;4868313;29;20147;-92
2022/12/11 08:23:03;;;;;;;15.45;8.60;;;;;;;;;;4856437;29;20035;-92
2022/12/11 08:25:31;;;;;;;14.60;8.43;;;;;;;;;;4849737;29;20124;-93
2022/12/11 08:28:00;;;;;;;15.32;8.25;;;;;;;;;;4855836;29;20030;-96
2022/12/11 08:31:04;;;;;;;34.40;15.85;;;;;;;;;;4877807;29;20516;-95
2022/12/11 08:33:50;;;;;;;21.38;9.88;;;;;;;;;;4858985;29;20053;-96
2022/12/11 08:36:28;;;;;;;22.00;10.10;;;;;;;;;;4874049;29;20033;-95
2022/12/11 08:39:02;;;;;;;20.02;11.02;;;;;;;;;;4836665;29;20034;-96
2022/12/11 08:41:28;;;;;;;;;;;;;;;;;;4888258;23;20061;-96
2022/12/11 08:43:57;;;;;;;19.25;10.43;;;;;;;;;;5002162;23;19914;-93
2022/12/11 08:46:25;;;;;;;14.52;7.97;;;;;;;;;;4858993;29;20072;-95
2022/12/11 08:48:53;;;;;;;15.07;8.77;;;;;;;;;;4858868;29;20040;-96
2022/12/11 08:54:10;;;;;;;15.85;9.05;;;;;;;;;;4884501;29;20025;-92
2022/12/11 08:56:39;;;;;;;14.95;9.23;;;;;;;;;;4865602;29;20034;-94
2022/12/11 08:59:05;;;;;;;14.40;8.38;;;;;;;;;;4880515;29;20033;-94
2022/12/11 09:01:38;;;;;;;25.40;11.90;;;;;;;;;;4883176;29;20120;-95
2022/12/11 09:04:08;;;;;;;22.00;10.85;;;;;;;;;;4858272;29;20105;-96
2022/12/11 09:07:04;;;;;;;25.05;11.23;;;;;;;;;;4876111;29;20037;-96
2022/12/11 09:09:41;;;;;;;22.02;11.10;;;;;;;;;;4893288;29;20124;-95
2022/12/11 09:12:08;;;;;;;19.98;10.40;;;;;;;;;;4875617;29;20048;-94
2022/12/11 09:14:36;;;;;;;13.13;7.63;;;;;;;;;;4871246;29;20490;-95
2022/12/11 09:17:04;;;;;;;18.65;10.35;;;;;;;;;;4855394;29;20041;-95
2022/12/11 09:19:30;;;;;;;16.45;9.60;;;;;;;;;;4870981;29;20037;-92
2022/12/11 09:22:00;;;;;;;13.85;7.72;;;;;;;;;;4885744;29;20088;-94
2022/12/11 09:24:27;;;;;;;19.15;9.88;;;;;;;;;;4864170;29;20048;-94
2022/12/11 09:26:54;;;;;;;14.57;8.57;;;;;;;;;;4868420;29;20097;-93
2022/12/11 09:29:20;;;;;;;14.85;8.35;;;;;;;;;;4868730;29;20033;-95
2022/12/11 09:31:48;;;;;;;16.10;9.38;;;;;;;;;;4886636;29;20526;-93
2022/12/11 09:34:14;;;;;;;16.98;9.60;;;;;;;;;;4861897;29;20057;-94
2022/12/11 09:36:51;;;;;;;13.00;8.07;;;;;;;;;;4894924;29;20025;-94
2022/12/11 09:39:21;;;;;;;14.38;8.32;;;;;;;;;;4868912;29;20393;-95
2022/12/11 09:41:59;;;;;;;14.70;8.70;;;;;;;;;;4871190;29;20039;-94
2022/12/11 09:45:13;;;;;;;;;;;;;;;;;;;;;
2022/12/11 09:48:06;;;;;;;16.30;9.80;;;;;;;;;;4896013;29;20032;-95
2022/12/11 09:51:00;;;;;;;15.00;8.75;;;;;;;;;;4860763;29;20029;-95
2022/12/11 09:53:34;;;;;;;17.08;9.85;;;;;;;;;;4874639;29;20037;-94
2022/12/11 09:56:22;;;;;;;17.27;10.63;;;;;;;;;;4880216;29;20033;-96
2022/12/11 10:01:50;;;;;;;16.60;9.80;;;;;;;;;;4894467;29;20056;-95
2022/12/11 10:04:50;;;;;;;17.85;10.50;;;;;;;;;;4879989;29;20615;-95
2022/12/11 10:07:42;;;;;;;17.92;10.25;;;;;;;;;;4883559;29;20046;-96
2022/12/11 10:18:08;;;;;;;20.98;11.68;;;;;;;;;;5356565;23;20056;-90
2022/12/11 10:23:34;;;;;;;18.02;10.02;;;;;;;;;;4923758;23;20062;-94
2022/12/11 10:29:47;;;;;;;17.25;10.52;;;;;;;;;;4831550;29;20059;-91
2022/12/11 10:48:54;;;;;;;15.45;9.38;;;;;;;;;;5478731;23;20065;-92
2022/12/11 10:56:57;;;;;;;15.55;9.10;;;;;;;;;;5213963;23;20125;-94
2022/12/11 10:59:35;;;;;;;15.40;9.65;;;;;;;;;;4864577;29;20128;-91
2022/12/11 11:05:24;;;;;;;12.93;8.15;;;;;;;;;;4871210;29;20064;-91
2022/12/11 11:14:19;;;;;;;17.00;10.60;;;;;;;;;;4829518;29;20096;-95
2022/12/11 11:28:56;;;;;;;22.15;12.68;;;;;;;;;;4875922;29;20039;-90
2022/12/11 11:31:44;;;;;;;20.13;12.18;;;;;;;;;;4853585;29;20045;-95
2022/12/11 11:34:29;;;;;;;19.35;11.73;;;;;;;;;;4854068;29;20089;-93
2022/12/11 11:37:04;;;;;;;22.65;12.75;;;;;;;;;;4856629;29;20034;-87
2022/12/11 11:48:44;;;;;;;20.80;12.93;;;;;;;;;;5089065;23;20278;-95
2022/12/11 11:51:15;;;;;;;15.75;10.68;;;;;;;;;;5126832;23;20054;-91
2022/12/11 11:54:04;;;;;;;19.55;11.60;;;;;;;;;;4851756;29;20036;-90
2022/12/11 11:56:35;;;;;;;18.48;11.45;;;;;;;;;;4884257;29;20026;-89
2022/12/11 12:02:29;;;;;;;16.17;10.48;;;;;;;;;;4851267;29;20150;-94
2022/12/11 12:08:11;;;;;;;17.85;11.40;;;;;;;;;;4892409;23;20142;-92
2022/12/11 12:10:40;;;;;;;20.10;12.15;;;;;;;;;;5036896;23;20089;-91
2022/12/11 12:13:36;;;;;;;17.80;11.10;;;;;;;;;;4850194;29;20038;-90
2022/12/11 12:21:41;;;;;;;21.20;14.02;;;;;;;;;;4955601;23;20087;-92
2022/12/11 12:30:23;;;;;;;17.60;10.90;;;;;;;;;;3920759;23;20347;-94
2022/12/11 12:32:53;;;;;;;18.42;11.63;;;;;;;;;;4847054;29;20057;-93
2022/12/11 12:35:30;;;;;;;17.92;11.00;;;;;;;;;;4839962;29;20034;-95
2022/12/11 12:38:04;;;;;;;19.27;11.45;;;;;;;;;;4833358;29;20548;-93
2022/12/11 12:40:42;;;;;;;20.17;11.77;;;;;;;;;;4834067;29;20033;-91
2022/12/11 12:43:27;;;;;;;18.20;11.30;;;;;;;;;;4835212;29;20030;-94
2022/12/11 12:46:01;;;;;;;18.90;11.38;;;;;;;;;;4838059;29;20280;-95
2022/12/11 12:48:31;;;;;;;19.00;10.88;;;;;;;;;;4840740;29;20070;-95
2022/12/11 12:51:13;;;;;;;16.52;10.85;;;;;;;;;;4851189;29;20101;-93
2022/12/11 12:56:44;;;;;;;17.23;10.45;;;;;;;;;;4856531;29;20063;-93
2022/12/11 12:59:36;;;;;;;17.38;10.45;;;;;;;;;;4843957;29;20018;-96
2022/12/11 13:02:03;;;;;;;18.40;10.85;;;;;;;;;;4830127;29;20093;-91
2022/12/11 13:04:39;;;;;;;17.25;10.20;;;;;;;;;;4829287;29;20499;-90
2022/12/11 13:07:13;;;;;;;16.73;9.88;;;;;;;;;;4829378;29;20148;-93
2022/12/11 13:09:39;;;;;;;15.82;10.27;;;;;;;;;;4829284;29;20041;-91
2022/12/11 13:12:11;;;;;;;17.50;10.80;;;;;;;;;;4830396;29;20042;-90
2022/12/11 13:14:40;;;;;;;16.38;10.13;;;;;;;;;;4835784;29;20022;-91
2022/12/11 13:17:25;;;;;;;19.15;11.00;;;;;;;;;;4833512;29;20034;-91
2022/12/11 13:19:56;;;;;;;15.90;10.02;;;;;;;;;;4829080;29;20157;-93
2022/12/11 13:22:23;;;;;;;16.73;9.93;;;;;;;;;;4845587;29;20572;-94
2022/12/11 13:24:52;;;;;;;19.23;10.77;;;;;;;;;;4828713;29;20040;-94
2022/12/11 13:27:53;;;;;;;15.52;9.65;;;;;;;;;;4825277;29;20030;-94
2022/12/11 13:30:20;;;;;;;18.42;10.60;;;;;;;;;;4850462;24;20049;-91
2022/12/11 13:32:55;;;;;;;16.05;9.30;;;;;;;;;;4844803;29;20120;-90
2022/12/11 13:35:34;;;;;;;15.20;9.90;;;;;;;;;;4869329;29;20055;-93
2022/12/11 13:38:14;;;;;;;17.65;10.13;;;;;;;;;;4844525;29;20232;-90
2022/12/11 13:40:42;;;;;;;15.68;9.32;;;;;;;;;;4846101;29;20025;-90
2022/12/11 13:43:15;;;;;;;14.75;9.10;;;;;;;;;;4845886;29;20037;-91
2022/12/11 13:45:59;;;;;;;16.55;9.38;;;;;;;;;;4881704;29;20057;-91
2022/12/11 13:48:39;;;;;;;15.07;9.43;;;;;;;;;;4853147;29;20041;-89
2022/12/11 13:51:18;;;;;;;14.23;9.10;;;;;;;;;;4846436;29;20041;-90
2022/12/11 13:53:50;;;;;;;15.48;9.52;;;;;;;;;;4851383;29;20041;-93
2022/12/11 13:56:21;;;;;;;18.73;10.48;;;;;;;;;;4853414;29;20017;-91
2022/12/11 13:58:50;;;;;;;19.92;10.80;;;;;;;;;;4851390;29;20178;-92
2022/12/11 14:01:23;;;;;;;16.40;9.20;;;;;;;;;;4858391;29;20021;-91
2022/12/11 14:06:53;;;;;;;16.92;9.85;;;;;;;;;;4979791;23;20080;-92
2022/12/11 14:09:37;;;;;;;17.33;9.60;;;;;;;;;;4855887;29;20033;-95
2022/12/11 14:12:03;;;;;;;17.23;9.90;;;;;;;;;;4837030;29;20053;-90
2022/12/11 14:14:49;;;;;;;18.40;11.07;;;;;;;;;;4857719;29;20038;-92
2022/12/11 14:17:42;;;;;;;15.80;9.60;;;;;;;;;;4851084;29;20130;-93
2022/12/11 14:20:31;;;;;;;17.95;10.52;;;;;;;;;;4835695;29;20030;-92
2022/12/11 14:23:15;;;;;;;18.65;10.05;;;;;;;;;;4853648;29;20038;-94
2022/12/11 14:25:42;;;;;;;18.90;11.02;;;;;;;;;;4852440;29;20030;-89
2022/12/11 14:28:20;;;;;;;18.33;11.13;;;;;;;;;;4852187;29;20034;-91
2022/12/11 14:30:51;;;;;;;19.38;10.48;;;;;;;;;;4853906;29;20037;-93
2022/12/11 14:33:25;;;;;;;23.65;11.80;;;;;;;;;;4852854;29;20042;-92
2022/12/11 14:35:54;;;;;;;19.33;11.25;;;;;;;;;;4851881;29;20058;-91
2022/12/11 14:38:50;;;;;;;18.33;10.68;;;;;;;;;;4849728;29;20038;-93
2022/12/11 14:41:30;;;;;;;19.05;10.68;;;;;;;;;;4836160;29;20029;-91
2022/12/11 14:44:01;;;;;;;20.95;12.00;;;;;;;;;;4835044;29;20045;-93
2022/12/11 14:46:37;;;;;;;20.90;11.38;;;;;;;;;;4847970;29;20010;-94
2022/12/11 14:49:13;;;;;;;16.13;9.38;;;;;;;;;;4830358;29;20044;-94
2022/12/11 14:51:41;;;;;;;17.20;10.30;;;;;;;;;;4840180;29;20075;-91
2022/12/11 14:54:12;;;;;;;16.50;10.20;;;;;;;;;;4848781;29;20057;-93
2022/12/11 14:56:38;;;;;;;16.65;10.68;;;;;;;;;;4847546;29;20042;-94
2022/12/11 14:59:26;;;;;;;17.70;10.85;;;;;;;;;;4834205;29;20053;-92
2022/12/11 15:02:19;;;;;;;15.82;9.30;;;;;;;;;;4847889;29;20116;-92
2022/12/11 15:05:02;;;;;;;17.17;9.93;;;;;;;;;;4831211;29;20026;-95
2022/12/11 15:17:47;;;;;;;15.63;9.23;;;;;;;;;;4942461;23;20058;-95
2022/12/11 15:20:40;;;;;;;19.60;10.00;;;;;;;;;;4863206;29;20107;-94
2022/12/11 15:46:25;;;;;;;17.27;9.32;;;;;;;;;;4886365;29;20049;-96
2022/12/11 15:48:56;;;;;;;17.10;9.10;;;;;;;;;;4869931;29;20115;-93
2022/12/11 15:51:28;;;;;;;17.35;9.73;;;;;;;;;;4874077;29;20029;-94
2022/12/11 15:54:43;;;;;;;18.15;9.10;;;;;;;;;;4870056;29;20036;-94
2022/12/11 15:57:04;;;;;;;16.33;9.52;;;;;;;;;;4882147;29;20294;-93
2022/12/11 15:59:31;;;;;;;18.08;9.77;;;;;;;;;;4881881;29;20025;-88
2022/12/11 16:01:57;;;;;;;18.23;9.45;;;;;;;;;;4876499;29;20037;-89
2022/12/11 16:04:26;;;;;;;14.95;8.73;;;;;;;;;;4869682;29;20033;-92
2022/12/11 16:06:54;;;;;;;18.27;10.50;;;;;;;;;;4870438;29;20121;-93
2022/12/11 16:09:24;;;;;;;17.15;9.68;;;;;;;;;;4887897;29;20021;-89
2022/12/11 16:11:50;;;;;;;19.55;11.30;;;;;;;;;;4884342;23;20126;-92
2022/12/11 16:51:40;;;;;;;14.02;7.47;;;;;;;;;;4879173;29;20104;-93
2022/12/11 16:54:06;;;;;;;13.98;7.93;;;;;;;;;;4863482;29;20053;-94
2022/12/11 16:56:39;;;;;;;12.90;7.32;;;;;;;;;;4867245;29;20089;-95
2022/12/11 16:59:06;;;;;;;;;;;;;;;;;;4865923;29;20032;-93
2022/12/11 17:01:32;;;;;;;13.25;7.15;;;;;;;;;;4863400;29;20027;-94
2022/12/11 17:04:01;;;;;;;11.82;7.10;;;;;;;;;;4863590;29;20065;-93
2022/12/11 17:06:31;;;;;;;15.57;8.15;;;;;;;;;;4864094;29;20029;-93
2022/12/11 17:08:57;;;;;;;15.35;8.75;;;;;;;;;;4863765;29;20031;-92
2022/12/11 17:11:25;;;;;;;14.57;7.70;;;;;;;;;;4863358;29;20049;-93
2022/12/11 17:13:55;;;;;;;13.85;7.18;;;;;;;;;;4864601;29;20048;-91
2022/12/11 17:16:32;;;;;;;14.40;7.75;;;;;;;;;;4883087;29;20443;-93
2022/12/11 17:19:12;;;;;;;14.65;8.05;;;;;;;;;;4866419;29;20094;-93
2022/12/11 17:21:38;;;;;;;12.25;7.22;;;;;;;;;;4867453;29;20535;-95
2022/12/11 17:24:04;;;;;;;11.57;6.68;;;;;;;;;;4866773;29;20029;-93
2022/12/11 17:26:35;;;;;;;13.63;7.07;;;;;;;;;;4870694;29;20033;-95
2022/12/11 17:29:04;;;;;;;16.20;8.05;;;;;;;;;;4872035;29;20025;-92
2022/12/11 17:31:34;;;;;;;14.02;8.10;;;;;;;;;;4868323;29;20043;-95
2022/12/11 17:34:50;;;;;;;;;;;;;;;;;;;;;
2022/12/11 17:37:20;;;;;;;14.18;6.80;;;;;;;;;;4869552;29;20586;-93
2022/12/11 17:39:49;;;;;;;15.63;8.20;;;;;;;;;;4867841;29;20112;-94
2022/12/11 17:53:20;;;;;;;13.07;7.38;;;;;;;;;;4832896;29;20295;-94
2022/12/11 17:56:06;;;;;;;13.93;7.97;;;;;;;;;;4855709;23;20129;-96
2022/12/11 17:58:49;;;;;;;13.15;6.85;;;;;;;;;;4870841;29;20045;-93
2022/12/11 18:01:15;;;;;;;13.75;7.85;;;;;;;;;;4866436;29;20026;-92
2022/12/11 18:03:43;;;;;;;13.23;7.22;;;;;;;;;;4855582;29;20030;-92
2022/12/11 18:06:25;;;;;;;13.23;7.00;;;;;;;;;;4857565;29;20034;-91
2022/12/11 18:08:59;;;;;;;14.13;7.80;;;;;;;;;;4838584;29;20030;-93
2022/12/11 18:11:33;;;;;;;16.92;9.05;;;;;;;;;;4857817;29;20026;-91
2022/12/11 18:16:56;;;;;;;13.77;7.78;;;;;;;;;;4856809;29;20063;-89
2022/12/11 18:19:27;;;;;;;14.43;7.35;;;;;;;;;;4854313;29;20042;-91
2022/12/11 18:21:55;;;;;;;13.98;7.85;;;;;;;;;;4856113;29;20045;-91
2022/12/11 18:24:30;;;;;;;12.38;6.40;;;;;;;;;;4850942;29;20098;-90